createdAt,value
2017-09-09T00:03:21.328Z,996.3
2017-09-09T00:08:26.730Z,996.3
2017-09-09T00:13:31.791Z,996.3
2017-09-09T00:18:36.520Z,996.2
2017-09-09T00:23:41.915Z,996.2
2017-09-09T00:28:47.321Z,996.1
2017-09-09T00:33:53.388Z,996.2
2017-09-09T00:38:58.447Z,996.1
2017-09-09T00:44:03.511Z,996.1
2017-09-09T00:49:08.573Z,996.1
2017-09-09T00:54:13.974Z,996.2
2017-09-09T00:59:19.038Z,996.1
2017-09-09T01:04:24.440Z,996.2
2017-09-09T01:09:29.839Z,996.3
2017-09-09T01:14:34.902Z,996.3
2017-09-09T01:19:39.640Z,996.3
2017-09-09T01:24:44.699Z,996.2
2017-09-09T01:29:49.765Z,996.2
2017-09-09T01:34:55.501Z,996.2
2017-09-09T01:40:00.564Z,996.2
2017-09-09T01:45:05.961Z,996.3
2017-09-09T01:50:11.032Z,996.3
2017-09-09T01:55:16.432Z,996.3
2017-09-09T02:00:21.496Z,996.3
2017-09-09T02:05:26.559Z,996.3
2017-09-09T02:10:31.960Z,996.2
2017-09-09T02:15:38.028Z,996.2
2017-09-09T02:20:43.764Z,996.2
2017-09-09T02:25:49.495Z,996.2
2017-09-09T02:30:54.894Z,996.2
2017-09-09T02:36:00.632Z,996.2
2017-09-09T02:41:06.364Z,996.1
2017-09-09T02:46:11.432Z,996.1
2017-09-09T02:51:16.493Z,996.1
2017-09-09T02:56:21.221Z,996.1
2017-09-09T03:01:26.284Z,996.1
2017-09-09T03:06:31.679Z,996.1
2017-09-09T03:11:37.413Z,996.1
2017-09-09T03:16:43.148Z,996
2017-09-09T03:21:48.549Z,996
2017-09-09T03:26:53.279Z,996
2017-09-09T03:31:58.679Z,995.9
2017-09-09T03:37:04.412Z,995.8
2017-09-09T03:42:09.811Z,995.8
2017-09-09T03:47:15.211Z,995.8
2017-09-09T03:52:20.612Z,995.8
2017-09-09T03:57:26.005Z,995.8
2017-09-09T04:02:31.406Z,995.7
2017-09-09T04:07:36.805Z,995.7
2017-09-09T04:12:41.534Z,995.7
2017-09-09T04:17:46.593Z,995.6
2017-09-09T04:22:51.993Z,995.5
2017-09-09T04:27:57.389Z,995.5
2017-09-09T04:33:03.121Z,995.5
2017-09-09T04:38:08.184Z,995.5
2017-09-09T04:43:13.250Z,995.5
2017-09-09T04:48:17.644Z,995.4
2017-09-09T04:53:23.711Z,995.4
2017-09-09T04:58:29.112Z,995.3
2017-09-09T05:03:34.511Z,995.2
2017-09-09T05:08:39.909Z,995.4
2017-09-09T05:13:44.972Z,995.4
2017-09-09T05:18:50.037Z,995.3
2017-09-09T05:23:55.436Z,995.2
2017-09-09T05:28:59.829Z,995.3
2017-09-09T05:34:05.613Z,995.3
2017-09-09T05:39:10.676Z,995.3
2017-09-09T05:44:15.761Z,995.3
2017-09-09T05:49:21.134Z,995.2
2017-09-09T05:54:26.201Z,995.2
2017-09-09T05:59:31.259Z,995.1
2017-09-09T06:04:35.989Z,995.1
2017-09-09T06:09:41.051Z,995.1
2017-09-09T06:14:46.454Z,995.1
2017-09-09T06:19:50.847Z,995
2017-09-09T06:24:55.911Z,995
2017-09-09T06:30:00.978Z,994.9
2017-09-09T06:35:06.376Z,995
2017-09-09T06:40:11.775Z,994.9
2017-09-09T06:45:16.841Z,994.9
2017-09-09T06:50:21.905Z,994.8
2017-09-09T06:55:26.299Z,994.8
2017-09-09T07:00:31.699Z,994.7
2017-09-09T07:05:37.770Z,994.6
2017-09-09T07:10:43.500Z,994.6
2017-09-09T07:15:48.564Z,994.5
2017-09-09T07:20:53.296Z,994.6
2017-09-09T07:25:58.031Z,994.7
2017-09-09T07:31:03.766Z,994.7
2017-09-09T07:36:08.834Z,994.7
2017-09-09T07:41:13.577Z,994.7
2017-09-09T07:46:17.968Z,994.6
2017-09-09T07:51:23.033Z,994.6
2017-09-09T07:56:29.097Z,994.6
2017-09-09T08:01:34.496Z,994.7
2017-09-09T08:06:39.224Z,994.7
2017-09-09T08:11:44.960Z,994.7
2017-09-09T08:16:49.691Z,994.7
2017-09-09T08:21:55.424Z,994.7
2017-09-09T08:27:00.824Z,994.7
2017-09-09T08:32:06.230Z,994.7
2017-09-09T08:37:11.629Z,994.8
2017-09-09T08:42:16.690Z,994.8
2017-09-09T08:47:22.099Z,994.8
2017-09-09T08:52:27.822Z,994.8
2017-09-09T08:57:31.884Z,994.7
2017-09-09T09:02:37.284Z,994.8
2017-09-09T09:07:42.349Z,994.8
2017-09-09T09:12:48.087Z,994.8
2017-09-09T09:17:53.154Z,994.7
2017-09-09T09:22:57.555Z,994.6
2017-09-09T09:28:03.288Z,994.7
2017-09-09T09:33:08.689Z,994.7
2017-09-09T09:38:13.085Z,994.6
2017-09-09T09:43:17.480Z,994.7
2017-09-09T09:48:22.766Z,994.7
2017-09-09T09:53:27.498Z,994.7
2017-09-09T09:58:31.564Z,994.6
2017-09-09T10:03:36.961Z,994.5
2017-09-09T10:08:43.032Z,994.6
2017-09-09T10:13:49.199Z,994.7
2017-09-09T10:18:55.320Z,994.8
2017-09-09T10:24:01.103Z,994.7
2017-09-09T10:29:07.089Z,994.7
2017-09-09T10:34:12.732Z,994.6
2017-09-09T10:39:18.510Z,994.6
2017-09-09T10:44:23.960Z,994.7
2017-09-09T10:49:29.765Z,994.7
2017-09-09T10:54:35.641Z,994.7
2017-09-09T10:59:41.476Z,994.7
2017-09-09T11:04:46.876Z,994.7
2017-09-09T11:09:52.301Z,994.9
2017-09-09T11:14:56.761Z,995
2017-09-09T11:20:01.878Z,995
2017-09-09T11:25:07.655Z,995
2017-09-09T11:30:12.747Z,995.1
2017-09-09T11:35:18.211Z,995.1
2017-09-09T11:40:23.314Z,995.1
2017-09-09T11:45:29.453Z,995
2017-09-09T11:50:35.010Z,994.9
2017-09-09T11:55:40.634Z,994.9
2017-09-09T12:00:45.388Z,995
2017-09-09T12:05:50.137Z,995
2017-09-09T12:10:55.623Z,995.1
2017-09-09T12:16:01.048Z,995.1
2017-09-09T12:21:05.797Z,995.1
2017-09-09T12:26:11.568Z,995.2
2017-09-09T12:31:16.663Z,995.1
2017-09-09T12:36:21.748Z,995.2
2017-09-09T12:41:26.510Z,995.2
2017-09-09T12:46:31.460Z,995.3
2017-09-09T12:51:37.136Z,995.2
2017-09-09T12:56:42.223Z,995.3
2017-09-09T13:01:48.066Z,995.3
2017-09-09T13:06:52.833Z,995.4
2017-09-09T13:11:58.235Z,995.4
2017-09-09T13:17:02.656Z,995.4
2017-09-09T13:22:08.079Z,995.4
2017-09-09T13:27:13.191Z,995.5
2017-09-09T13:32:18.622Z,995.5
2017-09-09T13:37:23.733Z,995.6
2017-09-09T13:42:28.183Z,995.7
2017-09-09T13:47:33.651Z,995.7
2017-09-09T13:52:39.127Z,995.7
2017-09-09T13:57:45.240Z,995.7
2017-09-09T14:02:50.683Z,995.7
2017-09-09T14:07:55.479Z,995.7
2017-09-09T14:12:59.937Z,995.8
2017-09-09T14:18:05.229Z,995.8
2017-09-09T14:23:10.701Z,995.8
2017-09-09T14:28:16.310Z,995.9
2017-09-09T14:33:21.898Z,995.8
2017-09-09T14:38:27.059Z,995.9
2017-09-09T14:43:31.472Z,996
2017-09-09T14:48:36.898Z,996.2
2017-09-09T14:53:42.017Z,996.2
2017-09-09T14:58:47.110Z,996.4
2017-09-09T15:03:52.301Z,996.3
2017-09-09T15:08:57.072Z,996.4
2017-09-09T15:14:02.172Z,996.5
2017-09-09T15:19:07.296Z,996.6
2017-09-09T15:24:12.734Z,996.7
2017-09-09T15:29:17.497Z,996.8
2017-09-09T15:34:23.255Z,996.8
2017-09-09T15:39:28.350Z,997
2017-09-09T15:44:33.100Z,997
2017-09-09T15:49:38.191Z,997.2
2017-09-09T15:54:43.597Z,997.3
2017-09-09T15:59:49.343Z,997.5
2017-09-09T16:04:54.452Z,997.6
2017-09-09T16:09:59.532Z,997.7
2017-09-09T16:15:04.967Z,997.6
2017-09-09T16:20:10.381Z,997.6
2017-09-09T16:25:15.804Z,997.7
2017-09-09T16:30:21.243Z,997.8
2017-09-09T16:35:26.320Z,997.9
2017-09-09T16:40:31.085Z,997.9
2017-09-09T16:45:36.511Z,998
2017-09-09T16:50:41.972Z,998
2017-09-09T16:55:47.066Z,998.1
2017-09-09T17:00:52.518Z,998.2
2017-09-09T17:05:57.637Z,998.3
2017-09-09T17:11:02.742Z,998.2
2017-09-09T17:16:08.175Z,998.3
2017-09-09T17:21:13.684Z,998.3
2017-09-09T17:26:18.435Z,998.3
2017-09-09T17:31:22.880Z,998.3
2017-09-09T17:36:27.301Z,998.4
2017-09-09T17:41:33.096Z,998.5
2017-09-09T17:46:38.208Z,998.4
2017-09-09T17:51:43.658Z,998.5
2017-09-09T17:56:48.756Z,998.6
2017-09-09T18:01:53.514Z,998.8
2017-09-09T18:06:58.604Z,998.8
2017-09-09T18:12:04.049Z,998.9
2017-09-09T18:17:08.805Z,999
2017-09-09T18:22:13.924Z,999
2017-09-09T18:27:19.011Z,999.1
2017-09-09T18:32:23.762Z,999.1
2017-09-09T18:37:29.166Z,999.2
2017-09-09T18:42:34.234Z,999.3
2017-09-09T18:47:39.636Z,999.4
2017-09-09T18:52:45.385Z,999.5
2017-09-09T18:57:51.131Z,999.7
2017-09-09T19:02:56.534Z,999.7
2017-09-09T19:08:01.267Z,999.8
2017-09-09T19:13:06.354Z,999.9
2017-09-09T19:18:12.096Z,999.9
2017-09-09T19:23:17.165Z,999.8
2017-09-09T19:28:22.306Z,999.9
2017-09-09T19:33:27.385Z,1000
2017-09-09T19:38:32.125Z,1000.1
2017-09-09T19:43:37.193Z,1000.1
2017-09-09T19:48:41.925Z,1000.2
2017-09-09T19:53:47.328Z,1000.2
2017-09-09T19:58:52.067Z,1000.2
2017-09-09T20:03:57.137Z,1000.3
2017-09-09T20:09:02.204Z,1000.3
2017-09-09T20:14:07.603Z,1000.3
2017-09-09T20:19:13.004Z,1000.4
2017-09-09T20:24:18.748Z,1000.4
2017-09-09T20:29:24.148Z,1000.4
2017-09-09T20:34:29.884Z,1000.5
2017-09-09T20:39:34.288Z,1000.5
2017-09-09T20:44:39.356Z,1000.6
2017-09-09T20:49:44.753Z,1000.6
2017-09-09T20:54:49.486Z,1000.7
2017-09-09T20:59:54.571Z,1000.7
2017-09-09T21:05:00.313Z,1000.7
2017-09-09T21:10:06.052Z,1000.8
2017-09-09T21:15:11.458Z,1000.8
2017-09-09T21:20:16.532Z,1000.8
2017-09-09T21:25:21.935Z,1000.8
2017-09-09T21:30:27.352Z,1000.9
2017-09-09T21:35:32.091Z,1000.9
2017-09-09T21:40:37.877Z,1000.8
2017-09-09T21:45:43.643Z,1000.8
2017-09-09T21:50:48.397Z,1000.8
2017-09-09T21:55:54.044Z,1000.8
2017-09-09T22:00:59.495Z,1000.7
2017-09-09T22:06:04.939Z,1000.8
2017-09-09T22:11:10.889Z,1000.7
2017-09-09T22:16:16.312Z,1000.7
2017-09-09T22:21:21.381Z,1000.8
2017-09-09T22:26:27.340Z,1000.8
2017-09-09T22:31:32.801Z,1001
2017-09-09T22:36:37.905Z,1001.1
2017-09-09T22:41:43.305Z,1001.1
2017-09-09T22:46:48.397Z,1001.2
2017-09-09T22:51:53.804Z,1001.2
2017-09-09T22:56:58.868Z,1001.2
2017-09-09T23:02:03.933Z,1001.3
2017-09-09T23:07:09.668Z,1001.3
2017-09-09T23:12:14.733Z,1001.3
2017-09-09T23:17:20.130Z,1001.3
2017-09-09T23:22:25.865Z,1001.3
2017-09-09T23:27:30.924Z,1001.3
2017-09-09T23:32:36.357Z,1001.3
2017-09-09T23:37:41.102Z,1001.4
2017-09-09T23:42:46.711Z,1001.4
2017-09-09T23:47:52.165Z,1001.4
2017-09-09T23:52:57.231Z,1001.4
2017-09-09T23:58:01.956Z,1001.4
